sensor_id;sensor_type;location;lat;lon;timestamp;P1;durP1;ratioP1;P2;durP2;ratioP2
21170;SDS011;10743;52.160;20.910;2023-01-01T00:00:46;211.82;;;60.25;;
21170;SDS011;10743;52.160;20.910;2023-01-01T00:03:14;218.63;;;60.42;;
21170;SDS011;10743;52.160;20.910;2023-01-01T00:05:41;212.43;;;59.40;;
21170;SDS011;10743;52.160;20.910;2023-01-01T00:08:08;217.50;;;60.67;;
21170;SDS011;10743;52.160;20.910;2023-01-01T00:10:36;214.05;;;59.83;;
21170;SDS011;10743;52.160;20.910;2023-01-01T00:13:03;212.52;;;59.55;;
21170;SDS011;10743;52.160;20.910;2023-01-01T00:15:30;213.88;;;59.63;;
21170;SDS011;10743;52.160;20.910;2023-01-01T00:17:58;213.65;;;59.65;;
21170;SDS011;10743;52.160;20.910;2023-01-01T00:20:25;207.93;;;58.42;;
21170;SDS011;10743;52.160;20.910;2023-01-01T00:23:00;211.07;;;59.42;;
21170;SDS011;10743;52.160;20.910;2023-01-01T00:25:27;214.48;;;60.10;;
21170;SDS011;10743;52.160;20.910;2023-01-01T00:27:54;208.98;;;58.45;;
21170;SDS011;10743;52.160;20.910;2023-01-01T00:30:21;212.88;;;59.90;;
21170;SDS011;10743;52.160;20.910;2023-01-01T00:32:50;213.88;;;59.88;;
21170;SDS011;10743;52.160;20.910;2023-01-01T00:35:24;211.57;;;59.28;;
21170;SDS011;10743;52.160;20.910;2023-01-01T00:37:53;215.05;;;59.75;;
21170;SDS011;10743;52.160;20.910;2023-01-01T00:40:20;216.35;;;60.13;;
21170;SDS011;10743;52.160;20.910;2023-01-01T00:42:48;212.20;;;59.65;;
21170;SDS011;10743;52.160;20.910;2023-01-01T00:45:15;220.52;;;60.30;;
21170;SDS011;10743;52.160;20.910;2023-01-01T00:47:48;213.35;;;59.85;;
21170;SDS011;10743;52.160;20.910;2023-01-01T00:50:17;213.07;;;59.88;;
21170;SDS011;10743;52.160;20.910;2023-01-01T00:52:46;212.45;;;59.33;;
21170;SDS011;10743;52.160;20.910;2023-01-01T00:55:14;213.30;;;59.80;;
21170;SDS011;10743;52.160;20.910;2023-01-01T00:57:41;214.63;;;59.78;;
21170;SDS011;10743;52.160;20.910;2023-01-01T01:00:09;211.02;;;59.40;;
21170;SDS011;10743;52.160;20.910;2023-01-01T01:02:37;213.63;;;59.70;;
21170;SDS011;10743;52.160;20.910;2023-01-01T01:05:04;209.90;;;59.40;;
21170;SDS011;10743;52.160;20.910;2023-01-01T01:07:36;211.52;;;59.38;;
21170;SDS011;10743;52.160;20.910;2023-01-01T01:10:04;212.80;;;59.15;;
21170;SDS011;10743;52.160;20.910;2023-01-01T01:12:33;212.77;;;60.25;;
21170;SDS011;10743;52.160;20.910;2023-01-01T01:15:02;210.15;;;59.47;;
21170;SDS011;10743;52.160;20.910;2023-01-01T01:17:30;213.07;;;59.17;;
21170;SDS011;10743;52.160;20.910;2023-01-01T01:19:58;212.75;;;59.72;;
21170;SDS011;10743;52.160;20.910;2023-01-01T01:22:25;211.93;;;59.55;;
21170;SDS011;10743;52.160;20.910;2023-01-01T01:24:54;215.27;;;59.47;;
21170;SDS011;10743;52.160;20.910;2023-01-01T01:27:23;212.68;;;59.30;;
21170;SDS011;10743;52.160;20.910;2023-01-01T01:29:50;217.20;;;61.40;;
21170;SDS011;10743;52.160;20.910;2023-01-01T01:32:18;213.68;;;60.47;;
21170;SDS011;10743;52.160;20.910;2023-01-01T01:34:46;213.80;;;59.78;;
21170;SDS011;10743;52.160;20.910;2023-01-01T01:37:14;213.18;;;60.83;;
21170;SDS011;10743;52.160;20.910;2023-01-01T01:39:41;213.88;;;59.50;;
21170;SDS011;10743;52.160;20.910;2023-01-01T01:42:14;212.20;;;59.63;;
21170;SDS011;10743;52.160;20.910;2023-01-01T01:47:41;213.75;;;59.95;;
21170;SDS011;10743;52.160;20.910;2023-01-01T01:50:23;219.40;;;61.83;;
21170;SDS011;10743;52.160;20.910;2023-01-01T01:53:15;214.55;;;59.95;;
21170;SDS011;10743;52.160;20.910;2023-01-01T01:55:51;218.70;;;62.10;;
21170;SDS011;10743;52.160;20.910;2023-01-01T01:58:22;216.85;;;60.63;;
21170;SDS011;10743;52.160;20.910;2023-01-01T02:00:52;214.95;;;61.67;;
21170;SDS011;10743;52.160;20.910;2023-01-01T02:03:38;217.18;;;60.97;;
21170;SDS011;10743;52.160;20.910;2023-01-01T02:06:16;213.48;;;60.33;;
21170;SDS011;10743;52.160;20.910;2023-01-01T02:08:44;219.38;;;61.33;;
21170;SDS011;10743;52.160;20.910;2023-01-01T02:11:12;223.77;;;61.90;;
21170;SDS011;10743;52.160;20.910;2023-01-01T02:13:46;215.88;;;59.95;;
21170;SDS011;10743;52.160;20.910;2023-01-01T02:22:16;209.60;;;59.38;;
21170;SDS011;10743;52.160;20.910;2023-01-01T02:25:12;214.65;;;59.95;;
21170;SDS011;10743;52.160;20.910;2023-01-01T02:31:29;215.73;;;59.97;;
21170;SDS011;10743;52.160;20.910;2023-01-01T02:34:06;212.02;;;59.33;;
21170;SDS011;10743;52.160;20.910;2023-01-01T02:36:39;214.45;;;59.90;;
21170;SDS011;10743;52.160;20.910;2023-01-01T02:39:14;213.60;;;59.53;;
21170;SDS011;10743;52.160;20.910;2023-01-01T02:41:46;216.48;;;59.97;;
21170;SDS011;10743;52.160;20.910;2023-01-01T02:44:17;215.30;;;59.95;;
21170;SDS011;10743;52.160;20.910;2023-01-01T02:46:47;211.23;;;59.08;;
21170;SDS011;10743;52.160;20.910;2023-01-01T02:49:14;214.30;;;59.78;;
21170;SDS011;10743;52.160;20.910;2023-01-01T02:51:56;214.40;;;60.33;;
21170;SDS011;10743;52.160;20.910;2023-01-01T02:55:15;213.32;;;58.97;;
21170;SDS011;10743;52.160;20.910;2023-01-01T02:58:01;213.90;;;59.55;;
21170;SDS011;10743;52.160;20.910;2023-01-01T03:01:07;213.95;;;60.30;;
21170;SDS011;10743;52.160;20.910;2023-01-01T03:03:51;211.25;;;59.47;;
21170;SDS011;10743;52.160;20.910;2023-01-01T03:15:32;213.20;;;59.33;;
21170;SDS011;10743;52.160;20.910;2023-01-01T03:18:28;211.43;;;59.60;;
21170;SDS011;10743;52.160;20.910;2023-01-01T03:21:37;209.75;;;59.00;;
21170;SDS011;10743;52.160;20.910;2023-01-01T03:24:23;213.07;;;59.42;;
21170;SDS011;10743;52.160;20.910;2023-01-01T03:26:56;211.98;;;59.20;;
21170;SDS011;10743;52.160;20.910;2023-01-01T03:29:29;213.75;;;59.80;;
21170;SDS011;10743;52.160;20.910;2023-01-01T03:32:01;212.30;;;59.45;;
21170;SDS011;10743;52.160;20.910;2023-01-01T03:34:33;219.55;;;60.58;;
21170;SDS011;10743;52.160;20.910;2023-01-01T03:37:07;214.40;;;59.42;;
21170;SDS011;10743;52.160;20.910;2023-01-01T03:39:42;212.48;;;58.92;;
21170;SDS011;10743;52.160;20.910;2023-01-01T03:42:17;212.63;;;59.53;;
21170;SDS011;10743;52.160;20.910;2023-01-01T03:45:02;215.65;;;59.65;;
21170;SDS011;10743;52.160;20.910;2023-01-01T03:47:34;210.55;;;59.13;;
21170;SDS011;10743;52.160;20.910;2023-01-01T03:50:03;214.25;;;59.42;;
21170;SDS011;10743;52.160;20.910;2023-01-01T03:56:04;210.88;;;59.28;;
21170;SDS011;10743;52.160;20.910;2023-01-01T03:58:59;219.57;;;59.85;;
21170;SDS011;10743;52.160;20.910;2023-01-01T04:01:41;214.77;;;59.45;;
21170;SDS011;10743;52.160;20.910;2023-01-01T04:04:15;213.75;;;59.58;;
21170;SDS011;10743;52.160;20.910;2023-01-01T04:06:44;214.27;;;60.10;;
21170;SDS011;10743;52.160;20.910;2023-01-01T04:09:12;213.63;;;59.60;;
21170;SDS011;10743;52.160;20.910;2023-01-01T04:11:46;213.95;;;59.42;;
21170;SDS011;10743;52.160;20.910;2023-01-01T04:14:27;217.18;;;60.00;;
21170;SDS011;10743;52.160;20.910;2023-01-01T04:17:01;215.43;;;59.67;;
21170;SDS011;10743;52.160;20.910;2023-01-01T04:19:31;214.02;;;59.83;;
21170;SDS011;10743;52.160;20.910;2023-01-01T04:21:58;216.02;;;59.97;;
21170;SDS011;10743;52.160;20.910;2023-01-01T04:24:26;214.02;;;59.22;;
21170;SDS011;10743;52.160;20.910;2023-01-01T04:26:54;215.88;;;59.83;;
21170;SDS011;10743;52.160;20.910;2023-01-01T04:29:22;213.60;;;59.33;;
21170;SDS011;10743;52.160;20.910;2023-01-01T04:31:49;215.73;;;59.70;;
21170;SDS011;10743;52.160;20.910;2023-01-01T04:34:16;212.93;;;59.63;;
21170;SDS011;10743;52.160;20.910;2023-01-01T04:36:44;219.18;;;59.90;;
21170;SDS011;10743;52.160;20.910;2023-01-01T04:39:11;211.95;;;58.80;;
21170;SDS011;10743;52.160;20.910;2023-01-01T04:41:38;212.68;;;59.05;;
21170;SDS011;10743;52.160;20.910;2023-01-01T04:44:05;216.52;;;59.58;;
21170;SDS011;10743;52.160;20.910;2023-01-01T04:46:33;214.13;;;59.30;;
21170;SDS011;10743;52.160;20.910;2023-01-01T04:49:00;215.98;;;59.42;;
21170;SDS011;10743;52.160;20.910;2023-01-01T04:51:27;218.38;;;59.78;;
21170;SDS011;10743;52.160;20.910;2023-01-01T04:53:54;214.93;;;59.90;;
21170;SDS011;10743;52.160;20.910;2023-01-01T04:56:22;215.63;;;59.53;;
21170;SDS011;10743;52.160;20.910;2023-01-01T04:58:49;217.23;;;59.88;;
21170;SDS011;10743;52.160;20.910;2023-01-01T05:01:17;214.45;;;60.10;;
21170;SDS011;10743;52.160;20.910;2023-01-01T05:03:48;212.43;;;59.22;;
21170;SDS011;10743;52.160;20.910;2023-01-01T05:06:15;222.30;;;59.90;;
21170;SDS011;10743;52.160;20.910;2023-01-01T05:08:44;214.82;;;59.42;;
21170;SDS011;10743;52.160;20.910;2023-01-01T05:11:14;213.05;;;59.45;;
21170;SDS011;10743;52.160;20.910;2023-01-01T05:13:46;215.38;;;59.70;;
21170;SDS011;10743;52.160;20.910;2023-01-01T05:16:16;211.02;;;58.90;;
21170;SDS011;10743;52.160;20.910;2023-01-01T05:18:47;213.05;;;58.83;;
21170;SDS011;10743;52.160;20.910;2023-01-01T05:21:16;215.35;;;59.25;;
21170;SDS011;10743;52.160;20.910;2023-01-01T05:23:47;212.85;;;59.50;;
21170;SDS011;10743;52.160;20.910;2023-01-01T05:26:16;216.23;;;59.55;;
21170;SDS011;10743;52.160;20.910;2023-01-01T05:28:46;215.63;;;59.55;;
21170;SDS011;10743;52.160;20.910;2023-01-01T05:31:18;215.23;;;59.70;;
21170;SDS011;10743;52.160;20.910;2023-01-01T05:33:48;211.90;;;59.25;;
21170;SDS011;10743;52.160;20.910;2023-01-01T05:36:18;214.63;;;59.92;;
21170;SDS011;10743;52.160;20.910;2023-01-01T05:38:52;214.63;;;59.53;;
21170;SDS011;10743;52.160;20.910;2023-01-01T05:41:20;213.82;;;59.30;;
21170;SDS011;10743;52.160;20.910;2023-01-01T05:43:48;218.07;;;60.10;;
21170;SDS011;10743;52.160;20.910;2023-01-01T05:46:20;212.35;;;59.13;;
21170;SDS011;10743;52.160;20.910;2023-01-01T05:48:51;214.85;;;59.22;;
21170;SDS011;10743;52.160;20.910;2023-01-01T05:51:20;217.40;;;60.33;;
21170;SDS011;10743;52.160;20.910;2023-01-01T05:53:50;214.63;;;59.53;;
21170;SDS011;10743;52.160;20.910;2023-01-01T05:56:20;216.65;;;59.80;;
21170;SDS011;10743;52.160;20.910;2023-01-01T05:58:47;212.55;;;59.05;;
21170;SDS011;10743;52.160;20.910;2023-01-01T06:01:16;213.18;;;59.45;;
21170;SDS011;10743;52.160;20.910;2023-01-01T06:03:51;212.55;;;59.00;;
21170;SDS011;10743;52.160;20.910;2023-01-01T06:06:20;216.82;;;59.42;;
21170;SDS011;10743;52.160;20.910;2023-01-01T06:08:50;219.68;;;60.28;;
21170;SDS011;10743;52.160;20.910;2023-01-01T06:11:22;212.00;;;59.38;;
21170;SDS011;10743;52.160;20.910;2023-01-01T06:13:51;211.43;;;59.33;;
21170;SDS011;10743;52.160;20.910;2023-01-01T06:16:19;216.18;;;59.58;;
21170;SDS011;10743;52.160;20.910;2023-01-01T06:18:46;212.43;;;59.15;;
21170;SDS011;10743;52.160;20.910;2023-01-01T06:21:15;211.77;;;59.20;;
21170;SDS011;10743;52.160;20.910;2023-01-01T06:23:45;213.50;;;59.38;;
21170;SDS011;10743;52.160;20.910;2023-01-01T06:26:16;212.55;;;58.85;;
21170;SDS011;10743;52.160;20.910;2023-01-01T06:28:49;223.35;;;62.30;;
21170;SDS011;10743;52.160;20.910;2023-01-01T06:31:18;216.20;;;59.40;;
21170;SDS011;10743;52.160;20.910;2023-01-01T06:33:47;213.48;;;59.03;;
21170;SDS011;10743;52.160;20.910;2023-01-01T06:36:17;224.77;;;60.45;;
21170;SDS011;10743;52.160;20.910;2023-01-01T06:38:48;217.45;;;60.15;;
21170;SDS011;10743;52.160;20.910;2023-01-01T06:41:19;217.02;;;60.60;;
21170;SDS011;10743;52.160;20.910;2023-01-01T06:43:48;216.73;;;59.58;;
21170;SDS011;10743;52.160;20.910;2023-01-01T06:48:56;212.55;;;59.17;;
21170;SDS011;10743;52.160;20.910;2023-01-01T06:51:31;224.52;;;60.65;;
21170;SDS011;10743;52.160;20.910;2023-01-01T06:54:04;210.55;;;58.50;;
21170;SDS011;10743;52.160;20.910;2023-01-01T06:56:33;212.38;;;59.10;;
21170;SDS011;10743;52.160;20.910;2023-01-01T06:59:02;212.50;;;58.75;;
21170;SDS011;10743;52.160;20.910;2023-01-01T07:01:30;216.65;;;59.90;;
21170;SDS011;10743;52.160;20.910;2023-01-01T07:04:02;216.68;;;60.10;;
21170;SDS011;10743;52.160;20.910;2023-01-01T07:06:33;210.82;;;59.05;;
21170;SDS011;10743;52.160;20.910;2023-01-01T07:09:01;213.15;;;59.38;;
21170;SDS011;10743;52.160;20.910;2023-01-01T07:11:30;214.43;;;59.33;;
21170;SDS011;10743;52.160;20.910;2023-01-01T07:13:59;215.43;;;59.53;;
21170;SDS011;10743;52.160;20.910;2023-01-01T07:16:27;212.55;;;59.60;;
21170;SDS011;10743;52.160;20.910;2023-01-01T07:18:54;216.93;;;59.65;;
21170;SDS011;10743;52.160;20.910;2023-01-01T07:24:10;217.23;;;59.30;;
21170;SDS011;10743;52.160;20.910;2023-01-01T07:26:39;219.65;;;60.05;;
21170;SDS011;10743;52.160;20.910;2023-01-01T07:29:07;214.50;;;59.03;;
21170;SDS011;10743;52.160;20.910;2023-01-01T07:31:38;218.93;;;60.17;;
21170;SDS011;10743;52.160;20.910;2023-01-01T07:34:16;218.90;;;59.90;;
21170;SDS011;10743;52.160;20.910;2023-01-01T07:36:45;216.43;;;59.35;;
21170;SDS011;10743;52.160;20.910;2023-01-01T07:39:12;215.20;;;59.60;;
21170;SDS011;10743;52.160;20.910;2023-01-01T07:41:39;214.65;;;59.08;;
21170;SDS011;10743;52.160;20.910;2023-01-01T07:44:06;213.07;;;58.75;;
21170;SDS011;10743;52.160;20.910;2023-01-01T07:46:34;217.73;;;59.60;;
21170;SDS011;10743;52.160;20.910;2023-01-01T07:49:02;211.98;;;59.08;;
21170;SDS011;10743;52.160;20.910;2023-01-01T07:51:29;221.77;;;59.85;;
21170;SDS011;10743;52.160;20.910;2023-01-01T07:53:57;212.23;;;58.75;;
21170;SDS011;10743;52.160;20.910;2023-01-01T07:56:32;214.82;;;59.35;;
21170;SDS011;10743;52.160;20.910;2023-01-01T07:59:00;215.15;;;59.30;;
21170;SDS011;10743;52.160;20.910;2023-01-01T08:01:27;219.90;;;60.00;;
21170;SDS011;10743;52.160;20.910;2023-01-01T08:03:55;215.07;;;59.08;;
21170;SDS011;10743;52.160;20.910;2023-01-01T08:06:22;218.07;;;58.80;;
21170;SDS011;10743;52.160;20.910;2023-01-01T08:08:49;212.43;;;58.50;;
21170;SDS011;10743;52.160;20.910;2023-01-01T08:11:16;215.95;;;58.83;;
21170;SDS011;10743;52.160;20.910;2023-01-01T08:13:43;212.67;;;58.40;;
21170;SDS011;10743;52.160;20.910;2023-01-01T08:16:10;219.70;;;59.97;;
21170;SDS011;10743;52.160;20.910;2023-01-01T08:18:37;215.13;;;59.00;;
21170;SDS011;10743;52.160;20.910;2023-01-01T08:21:08;220.85;;;60.28;;
21170;SDS011;10743;52.160;20.910;2023-01-01T08:23:35;220.95;;;60.25;;
21170;SDS011;10743;52.160;20.910;2023-01-01T08:26:02;222.27;;;59.78;;
21170;SDS011;10743;52.160;20.910;2023-01-01T08:28:29;222.57;;;59.60;;
21170;SDS011;10743;52.160;20.910;2023-01-01T08:30:57;220.57;;;59.70;;
21170;SDS011;10743;52.160;20.910;2023-01-01T08:33:27;218.73;;;59.30;;
21170;SDS011;10743;52.160;20.910;2023-01-01T08:35:54;215.85;;;58.95;;
21170;SDS011;10743;52.160;20.910;2023-01-01T08:38:22;218.30;;;59.50;;
21170;SDS011;10743;52.160;20.910;2023-01-01T08:40:49;215.50;;;59.60;;
21170;SDS011;10743;52.160;20.910;2023-01-01T08:43:16;220.90;;;59.88;;
21170;SDS011;10743;52.160;20.910;2023-01-01T08:45:44;219.25;;;59.65;;
21170;SDS011;10743;52.160;20.910;2023-01-01T08:48:11;219.73;;;59.78;;
21170;SDS011;10743;52.160;20.910;2023-01-01T08:50:38;228.25;;;60.05;;
21170;SDS011;10743;52.160;20.910;2023-01-01T08:53:05;224.70;;;60.45;;
21170;SDS011;10743;52.160;20.910;2023-01-01T08:55:33;223.63;;;59.53;;
21170;SDS011;10743;52.160;20.910;2023-01-01T08:58:03;227.80;;;61.17;;
21170;SDS011;10743;52.160;20.910;2023-01-01T09:00:32;227.70;;;60.47;;
21170;SDS011;10743;52.160;20.910;2023-01-01T09:03:00;225.90;;;60.42;;
21170;SDS011;10743;52.160;20.910;2023-01-01T09:05:27;223.32;;;60.00;;
21170;SDS011;10743;52.160;20.910;2023-01-01T09:07:54;219.70;;;59.35;;
21170;SDS011;10743;52.160;20.910;2023-01-01T09:10:21;222.77;;;60.53;;
21170;SDS011;10743;52.160;20.910;2023-01-01T09:12:48;221.35;;;60.47;;
21170;SDS011;10743;52.160;20.910;2023-01-01T09:15:15;227.27;;;61.67;;
21170;SDS011;10743;52.160;20.910;2023-01-01T09:17:42;228.68;;;61.58;;
21170;SDS011;10743;52.160;20.910;2023-01-01T09:20:10;230.40;;;61.75;;
21170;SDS011;10743;52.160;20.910;2023-01-01T09:22:37;225.00;;;61.20;;
21170;SDS011;10743;52.160;20.910;2023-01-01T09:25:04;233.00;;;63.00;;
21170;SDS011;10743;52.160;20.910;2023-01-01T09:27:32;232.32;;;61.53;;
21170;SDS011;10743;52.160;20.910;2023-01-01T09:29:59;235.73;;;61.47;;
21170;SDS011;10743;52.160;20.910;2023-01-01T09:32:28;223.88;;;60.53;;
21170;SDS011;10743;52.160;20.910;2023-01-01T09:34:55;256.75;;;86.40;;
21170;SDS011;10743;52.160;20.910;2023-01-01T09:37:22;236.88;;;67.82;;
21170;SDS011;10743;52.160;20.910;2023-01-01T09:39:50;239.13;;;64.72;;
21170;SDS011;10743;52.160;20.910;2023-01-01T09:47:54;222.07;;;59.67;;
21170;SDS011;10743;52.160;20.910;2023-01-01T09:50:30;229.77;;;60.27;;
21170;SDS011;10743;52.160;20.910;2023-01-01T09:53:14;234.07;;;61.93;;
21170;SDS011;10743;52.160;20.910;2023-01-01T09:55:53;237.43;;;61.93;;
21170;SDS011;10743;52.160;20.910;2023-01-01T09:58:27;243.50;;;62.20;;
21170;SDS011;10743;52.160;20.910;2023-01-01T10:01:08;231.40;;;61.50;;
21170;SDS011;10743;52.160;20.910;2023-01-01T10:12:34;229.80;;;61.57;;
21170;SDS011;10743;52.160;20.910;2023-01-01T10:17:45;229.67;;;62.40;;
21170;SDS011;10743;52.160;20.910;2023-01-01T10:21:18;227.63;;;61.40;;
21170;SDS011;10743;52.160;20.910;2023-01-01T10:23:18;225.05;;;60.40;;
21170;SDS011;10743;52.160;20.910;2023-01-01T10:25:51;226.00;;;60.85;;
21170;SDS011;10743;52.160;20.910;2023-01-01T10:28:21;227.80;;;60.67;;
21170;SDS011;10743;52.160;20.910;2023-01-01T10:31:10;229.55;;;60.85;;
21170;SDS011;10743;52.160;20.910;2023-01-01T10:33:51;226.80;;;60.58;;
21170;SDS011;10743;52.160;20.910;2023-01-01T10:36:18;223.32;;;60.08;;
21170;SDS011;10743;52.160;20.910;2023-01-01T10:38:49;221.85;;;60.22;;
21170;SDS011;10743;52.160;20.910;2023-01-01T10:41:17;220.43;;;59.72;;
21170;SDS011;10743;52.160;20.910;2023-01-01T10:43:45;222.40;;;59.83;;
21170;SDS011;10743;52.160;20.910;2023-01-01T10:46:17;220.88;;;60.13;;
21170;SDS011;10743;52.160;20.910;2023-01-01T10:49:04;240.27;;;61.80;;
21170;SDS011;10743;52.160;20.910;2023-01-01T10:51:41;247.60;;;61.40;;
21170;SDS011;10743;52.160;20.910;2023-01-01T10:54:21;242.37;;;62.57;;
21170;SDS011;10743;52.160;20.910;2023-01-01T10:56:58;232.67;;;61.27;;
21170;SDS011;10743;52.160;20.910;2023-01-01T10:59:45;236.10;;;63.60;;
21170;SDS011;10743;52.160;20.910;2023-01-01T11:02:20;238.73;;;63.40;;
21170;SDS011;10743;52.160;20.910;2023-01-01T11:05:08;237.88;;;61.90;;
21170;SDS011;10743;52.160;20.910;2023-01-01T11:07:47;239.02;;;60.70;;
21170;SDS011;10743;52.160;20.910;2023-01-01T11:10:19;240.88;;;63.13;;
21170;SDS011;10743;52.160;20.910;2023-01-01T11:12:49;229.13;;;60.42;;
21170;SDS011;10743;52.160;20.910;2023-01-01T11:15:35;231.80;;;61.10;;
21170;SDS011;10743;52.160;20.910;2023-01-01T11:18:13;239.07;;;62.10;;
21170;SDS011;10743;52.160;20.910;2023-01-01T11:20:52;235.88;;;61.95;;
21170;SDS011;10743;52.160;20.910;2023-01-01T11:28:39;241.27;;;62.83;;
21170;SDS011;10743;52.160;20.910;2023-01-01T11:33:45;231.23;;;62.20;;
21170;SDS011;10743;52.160;20.910;2023-01-01T11:36:26;238.63;;;62.80;;
21170;SDS011;10743;52.160;20.910;2023-01-01T11:41:49;238.00;;;62.85;;
21170;SDS011;10743;52.160;20.910;2023-01-01T11:44:28;239.85;;;62.78;;
21170;SDS011;10743;52.160;20.910;2023-01-01T11:47:48;243.93;;;62.72;;
21170;SDS011;10743;52.160;20.910;2023-01-01T11:52:40;234.00;;;61.30;;
21170;SDS011;10743;52.160;20.910;2023-01-01T11:58:03;238.38;;;62.75;;
21170;SDS011;10743;52.160;20.910;2023-01-01T12:00:46;251.07;;;72.53;;
21170;SDS011;10743;52.160;20.910;2023-01-01T12:08:40;244.43;;;62.83;;
21170;SDS011;10743;52.160;20.910;2023-01-01T12:11:16;238.25;;;62.63;;
21170;SDS011;10743;52.160;20.910;2023-01-01T12:13:58;241.65;;;63.30;;
21170;SDS011;10743;52.160;20.910;2023-01-01T12:19:21;242.55;;;63.08;;
21170;SDS011;10743;52.160;20.910;2023-01-01T12:22:07;230.95;;;61.45;;
21170;SDS011;10743;52.160;20.910;2023-01-01T12:24:43;237.63;;;62.20;;
21170;SDS011;10743;52.160;20.910;2023-01-01T12:27:15;234.90;;;61.78;;
21170;SDS011;10743;52.160;20.910;2023-01-01T12:38:57;233.98;;;62.63;;
21170;SDS011;10743;52.160;20.910;2023-01-01T12:45:01;231.82;;;61.92;;
21170;SDS011;10743;52.160;20.910;2023-01-01T12:50:47;244.23;;;62.85;;
21170;SDS011;10743;52.160;20.910;2023-01-01T12:53:35;240.50;;;64.10;;
21170;SDS011;10743;52.160;20.910;2023-01-01T12:56:48;252.88;;;68.97;;
21170;SDS011;10743;52.160;20.910;2023-01-01T12:59:33;294.23;;;93.68;;
21170;SDS011;10743;52.160;20.910;2023-01-01T13:02:21;293.45;;;87.30;;
21170;SDS011;10743;52.160;20.910;2023-01-01T13:04:57;249.13;;;70.07;;
21170;SDS011;10743;52.160;20.910;2023-01-01T13:07:35;245.85;;;68.60;;
21170;SDS011;10743;52.160;20.910;2023-01-01T13:10:19;251.15;;;67.00;;
21170;SDS011;10743;52.160;20.910;2023-01-01T13:12:53;247.00;;;67.40;;
21170;SDS011;10743;52.160;20.910;2023-01-01T13:18:07;237.57;;;62.25;;
21170;SDS011;10743;52.160;20.910;2023-01-01T13:21:20;232.57;;;62.53;;
21170;SDS011;10743;52.160;20.910;2023-01-01T13:23:48;239.68;;;63.17;;
21170;SDS011;10743;52.160;20.910;2023-01-01T13:39:59;236.02;;;62.90;;
21170;SDS011;10743;52.160;20.910;2023-01-01T13:45:43;237.45;;;62.03;;
21170;SDS011;10743;52.160;20.910;2023-01-01T13:48:46;233.27;;;62.17;;
21170;SDS011;10743;52.160;20.910;2023-01-01T14:04:07;235.02;;;61.95;;
21170;SDS011;10743;52.160;20.910;2023-01-01T14:07:14;240.98;;;67.10;;
21170;SDS011;10743;52.160;20.910;2023-01-01T14:12:56;243.93;;;67.82;;
21170;SDS011;10743;52.160;20.910;2023-01-01T14:16:16;236.32;;;65.35;;
21170;SDS011;10743;52.160;20.910;2023-01-01T14:18:33;237.88;;;76.32;;
21170;SDS011;10743;52.160;20.910;2023-01-01T14:21:12;242.98;;;84.30;;
21170;SDS011;10743;52.160;20.910;2023-01-01T14:23:44;252.18;;;115.40;;
21170;SDS011;10743;52.160;20.910;2023-01-01T14:26:20;233.60;;;62.40;;
21170;SDS011;10743;52.160;20.910;2023-01-01T14:28:54;235.93;;;63.95;;
21170;SDS011;10743;52.160;20.910;2023-01-01T14:31:31;244.48;;;64.55;;
21170;SDS011;10743;52.160;20.910;2023-01-01T14:34:12;230.98;;;62.38;;
21170;SDS011;10743;52.160;20.910;2023-01-01T14:37:00;231.60;;;62.03;;
21170;SDS011;10743;52.160;20.910;2023-01-01T14:39:34;233.52;;;61.95;;
21170;SDS011;10743;52.160;20.910;2023-01-01T14:42:03;229.65;;;60.78;;
21170;SDS011;10743;52.160;20.910;2023-01-01T14:44:44;235.32;;;62.08;;
21170;SDS011;10743;52.160;20.910;2023-01-01T14:49:53;229.75;;;61.85;;
21170;SDS011;10743;52.160;20.910;2023-01-01T14:52:48;231.25;;;62.13;;
21170;SDS011;10743;52.160;20.910;2023-01-01T14:55:43;232.85;;;62.55;;
21170;SDS011;10743;52.160;20.910;2023-01-01T14:58:12;234.25;;;63.08;;
21170;SDS011;10743;52.160;20.910;2023-01-01T15:00:50;234.27;;;62.53;;
21170;SDS011;10743;52.160;20.910;2023-01-01T15:03:19;226.77;;;61.65;;
21170;SDS011;10743;52.160;20.910;2023-01-01T15:05:58;230.15;;;61.80;;
21170;SDS011;10743;52.160;20.910;2023-01-01T15:08:29;240.05;;;69.32;;
21170;SDS011;10743;52.160;20.910;2023-01-01T15:10:56;229.65;;;64.03;;
21170;SDS011;10743;52.160;20.910;2023-01-01T15:13:25;238.52;;;69.53;;
21170;SDS011;10743;52.160;20.910;2023-01-01T15:15:54;264.02;;;95.28;;
21170;SDS011;10743;52.160;20.910;2023-01-01T15:26:35;242.68;;;76.03;;
21170;SDS011;10743;52.160;20.910;2023-01-01T15:29:10;233.80;;;63.13;;
21170;SDS011;10743;52.160;20.910;2023-01-01T15:31:48;225.00;;;61.05;;
21170;SDS011;10743;52.160;20.910;2023-01-01T15:34:29;230.27;;;61.65;;
21170;SDS011;10743;52.160;20.910;2023-01-01T15:37:16;236.13;;;62.78;;
21170;SDS011;10743;52.160;20.910;2023-01-01T15:39:51;234.88;;;66.90;;
21170;SDS011;10743;52.160;20.910;2023-01-01T15:45:18;246.23;;;65.40;;
21170;SDS011;10743;52.160;20.910;2023-01-01T15:47:48;234.73;;;62.25;;
21170;SDS011;10743;52.160;20.910;2023-01-01T15:50:34;239.85;;;64.85;;
21170;SDS011;10743;52.160;20.910;2023-01-01T15:53:14;250.52;;;68.40;;
21170;SDS011;10743;52.160;20.910;2023-01-01T15:55:54;240.23;;;67.68;;
21170;SDS011;10743;52.160;20.910;2023-01-01T15:58:31;238.57;;;66.50;;
21170;SDS011;10743;52.160;20.910;2023-01-01T16:01:27;234.23;;;64.63;;
21170;SDS011;10743;52.160;20.910;2023-01-01T16:04:17;230.95;;;62.80;;
21170;SDS011;10743;52.160;20.910;2023-01-01T16:06:54;232.40;;;62.42;;
21170;SDS011;10743;52.160;20.910;2023-01-01T16:09:23;228.70;;;61.80;;
21170;SDS011;10743;52.160;20.910;2023-01-01T16:11:51;229.77;;;61.92;;
21170;SDS011;10743;52.160;20.910;2023-01-01T16:14:20;230.48;;;62.22;;
21170;SDS011;10743;52.160;20.910;2023-01-01T16:16:49;241.48;;;69.63;;
21170;SDS011;10743;52.160;20.910;2023-01-01T16:19:22;228.73;;;61.40;;
21170;SDS011;10743;52.160;20.910;2023-01-01T16:21:50;237.55;;;63.10;;
21170;SDS011;10743;52.160;20.910;2023-01-01T16:24:17;230.63;;;63.65;;
21170;SDS011;10743;52.160;20.910;2023-01-01T16:26:46;242.48;;;65.57;;
21170;SDS011;10743;52.160;20.910;2023-01-01T16:29:14;229.40;;;62.10;;
21170;SDS011;10743;52.160;20.910;2023-01-01T16:31:41;231.80;;;64.07;;
21170;SDS011;10743;52.160;20.910;2023-01-01T16:34:10;231.05;;;63.30;;
21170;SDS011;10743;52.160;20.910;2023-01-01T16:36:40;227.88;;;63.47;;
21170;SDS011;10743;52.160;20.910;2023-01-01T16:39:11;226.90;;;63.15;;
21170;SDS011;10743;52.160;20.910;2023-01-01T16:41:38;230.85;;;63.22;;
21170;SDS011;10743;52.160;20.910;2023-01-01T16:44:11;228.27;;;62.85;;
21170;SDS011;10743;52.160;20.910;2023-01-01T16:46:39;226.80;;;62.28;;